Time;durP1;ratioP1;P1;durP2;ratioP2;P2;SDS_P1;SDS_P2;PMS_P1;PMS_P2;Temp;Humidity;BMP_temperature;BMP_pressure;BME280_temperature;BME280_humidity;BME280_pressure;Samples;Min_cycle;Max_cycle;Signal;HPM_P1;HPM_P2
2021/04/09 00:02:24;;;;;;;;;;;;;;;2.02;59.29;100863.31;4361110;32;20045;-88
2021/04/09 00:04:49;;;;;;;;;;;;;;;2.04;59.28;100865.91;4361316;32;20099;-90
2021/04/09 00:07:15;;;;;;;;;;;;;;;1.97;59.28;100866.63;4362469;32;20258;-90
2021/04/09 00:09:40;;;;;;;;;;;;;;;1.87;59.28;100875.81;4373523;32;19999;-90
2021/04/09 00:12:05;;;;;;;;;;;;;;;1.99;59.29;100877.78;4362098;32;20033;-89
2021/04/09 00:14:31;;;;;;;;;;;;;;;2.01;59.28;100882.13;4373620;32;20369;-90
2021/04/09 00:16:56;;;;;;;;;;;;;;;1.96;59.28;100865.75;4361209;32;20017;-90
2021/04/09 00:19:22;;;;;;;;;;;;;;;1.97;59.28;100864.94;4360796;32;20021;-90
2021/04/09 00:21:48;;;;;;;;;;;;;;;1.97;59.28;100874.34;4348211;32;19991;-90
2021/04/09 00:24:13;;;;;;;;;;;;;;;1.95;59.28;100874.31;4346597;33;20022;-90
2021/04/09 00:26:38;;;;;;;;;;;;;;;1.80;59.28;100873.97;4346613;33;20024;-88
2021/04/09 00:29:03;;;;;;;;;;;;;;;1.86;59.28;100868.97;4346440;33;20055;-92
2021/04/09 00:31:29;;;;;;;;;;;;;;;1.64;59.26;100879.59;4359188;32;20258;-91
2021/04/09 00:33:54;;;;;;;;;;;;;;;1.45;59.25;100876.63;4347048;33;19995;-91
2021/04/09 00:36:19;;;;;;;;;;;;;;;1.61;59.26;100875.25;4359156;32;20000;-91
2021/04/09 00:38:45;;;;;;;;;;;;;;;1.72;59.27;100868.69;4361070;32;19979;-91
2021/04/09 00:41:10;;;;;;;;;;;;;;;1.65;59.26;100865.94;4348939;32;20003;-90
2021/04/09 00:43:37;;;;;;;;;;;;;;;1.85;59.28;100869.78;4348905;32;20037;-91
2021/04/09 00:46:02;;;;;;;;;;;;;;;1.89;59.27;100868.16;4348974;32;20065;-89
2021/04/09 00:48:27;;;;;;;;;;;;;;;1.66;59.26;100876.25;4348871;32;20423;-90
2021/04/09 00:50:52;;;;;;;;;;;;;;;1.52;59.26;100877.63;4347586;32;25426;-89
2021/04/09 00:53:18;;;;;;;;;;;;;;;1.59;59.26;100874.37;4360381;32;20372;-90
2021/04/09 00:55:43;;;;;;;;;;;;;;;1.35;59.25;100878.94;4347970;32;20313;-90
2021/04/09 00:58:08;;;;;;;;;;;;;;;1.34;59.25;100867.81;4360369;32;20007;-89
2021/04/09 01:00:34;;;;;;;;;;;;;;;1.37;59.25;100874.72;4359589;32;23419;-90
2021/04/09 01:02:59;;;;;;;;;;;;;;;1.33;59.24;100872.91;4347606;32;20655;-89
2021/04/09 01:05:24;;;;;;;;;;;;;;;1.45;59.25;100874.06;4347554;32;19999;-89
2021/04/09 01:07:49;;;;;;;;;;;;;;;1.43;59.25;100870.59;4347685;32;19991;-89
2021/04/09 01:10:17;;;;;;;;;;;;;;;1.49;59.26;100877.56;4360094;32;20010;-90
2021/04/09 01:12:43;;;;;;;;;;;;;;;1.27;59.24;100880.47;4359303;32;20373;-89
2021/04/09 01:15:08;;;;;;;;;;;;;;;1.19;59.24;100882.88;4347704;32;19987;-90
2021/04/09 01:17:37;;;;;;;;;;;;;;;1.27;59.24;100868.50;4360002;32;19979;-89
2021/04/09 01:20:02;;;;;;;;;;;;;;;1.30;59.25;100875.41;4357409;32;20005;-90
2021/04/09 01:22:30;;;;;;;;;;;;;;;1.09;59.23;100866.38;4360282;32;20633;-89
2021/04/09 01:25:07;;;;;;;;;;;;;;;1.24;59.23;100873.56;4347273;32;20003;-89
2021/04/09 01:27:51;;;;;;;;;;;;;;;1.14;59.23;100871.59;4360012;32;20030;-90
2021/04/09 01:30:26;;;;;;;;;;;;;;;1.32;59.24;100871.19;4361392;32;20037;-89
2021/04/09 01:32:52;;;;;;;;;;;;;;;1.38;59.24;100867.03;4347570;32;19991;-89
2021/04/09 01:35:17;;;;;;;;;;;;;;;1.57;59.26;100860.63;4347611;32;20005;-90
2021/04/09 01:37:44;;;;;;;;;;;;;;;1.23;59.24;100856.44;4348556;32;20000;-89
2021/04/09 01:40:11;;;;;;;;;;;;;;;1.37;59.24;100855.06;4350376;32;19975;-90
2021/04/09 01:42:36;;;;;;;;;;;;;;;1.22;59.24;100859.84;4345834;33;20050;-89
2021/04/09 01:45:01;;;;;;;;;;;;;;;1.09;59.23;100861.25;4346430;32;19991;-90
2021/04/09 01:47:26;;;;;;;;;;;;;;;1.21;59.24;100861.56;4344932;33;20020;-88
2021/04/09 01:49:55;;;;;;;;;;;;;;;1.08;59.23;100869.75;4334394;33;20231;-90
2021/04/09 01:52:21;;;;;;;;;;;;;;;0.89;59.23;100865.88;4334985;33;20003;-89
2021/04/09 01:54:46;;;;;;;;;;;;;;;0.96;59.23;100869.47;4347300;33;20306;-88
2021/04/09 01:57:12;;;;;;;;;;;;;;;0.93;59.22;100865.13;4346928;33;20294;-89
2021/04/09 01:59:37;;;;;;;;;;;;;;;0.88;59.22;100860.72;4347179;33;19998;-89
2021/04/09 02:02:03;;;;;;;;;;;;;;;0.85;59.22;100860.66;4347198;33;20369;-89
2021/04/09 02:04:28;;;;;;;;;;;;;;;0.91;59.23;100856.53;4346941;33;19987;-88
2021/04/09 02:06:53;;;;;;;;;;;;;;;0.98;59.23;100862.69;4334777;33;19995;-88
2021/04/09 02:09:18;;;;;;;;;;;;;;;0.80;59.21;100859.66;4347520;33;20318;-90
2021/04/09 02:11:43;;;;;;;;;;;;;;;0.74;59.20;100859.53;4335193;33;19987;-89
2021/04/09 02:14:13;;;;;;;;;;;;;;;0.68;59.21;100865.34;4347971;33;20018;-89
2021/04/09 02:16:38;;;;;;;;;;;;;;;0.78;59.21;100867.31;4335717;33;20632;-89
2021/04/09 02:19:04;;;;;;;;;;;;;;;0.95;59.22;100859.16;4335012;33;20019;-90
2021/04/09 02:21:31;;;;;;;;;;;;;;;0.78;59.21;100856.19;4334603;33;19991;-88
2021/04/09 02:23:56;;;;;;;;;;;;;;;1.02;59.22;100854.25;4346711;33;20045;-87
2021/04/09 02:26:21;;;;;;;;;;;;;;;1.08;59.23;100851.81;4347761;33;20023;-87
2021/04/09 02:28:46;;;;;;;;;;;;;;;1.06;59.23;100850.91;4353215;33;20007;-88
2021/04/09 02:31:12;;;;;;;;;;;;;;;0.76;59.22;100857.87;4360713;32;27833;-87
2021/04/09 02:33:38;;;;;;;;;;;;;;;0.83;59.22;100859.75;4355738;32;19975;-88
2021/04/09 02:36:07;;;;;;;;;;;;;;;0.69;59.21;100863.63;4337332;33;20278;-88
2021/04/09 02:38:32;;;;;;;;;;;;;;;0.84;59.22;100864.03;4335881;32;19999;-87
2021/04/09 02:40:59;;;;;;;;;;;;;;;0.87;59.22;100864.97;4361321;32;19991;-88
2021/04/09 02:43:24;;;;;;;;;;;;;;;0.95;59.22;100867.75;4361796;32;20049;-89
2021/04/09 02:45:49;;;;;;;;;;;;;;;1.02;59.23;100864.50;4373608;32;20311;-89
2021/04/09 02:48:14;;;;;;;;;;;;;;;0.89;59.22;100871.00;4360856;32;20043;-88
2021/04/09 02:50:41;;;;;;;;;;;;;;;0.91;59.22;100866.78;4360605;32;27529;-88
2021/04/09 02:53:11;;;;;;;;;;;;;;;0.97;59.23;100860.97;4373542;32;19990;-88
2021/04/09 02:55:37;;;;;;;;;;;;;;;0.90;59.23;100864.19;4373548;32;19991;-88
2021/04/09 02:58:04;;;;;;;;;;;;;;;0.91;59.22;100865.91;4373473;32;20037;-88
2021/04/09 03:00:29;;;;;;;;;;;;;;;1.04;59.23;100865.41;4359917;32;20050;-89
2021/04/09 03:02:54;;;;;;;;;;;;;;;0.97;59.23;100871.22;4362128;32;20230;-88
2021/04/09 03:05:19;;;;;;;;;;;;;;;1.11;59.24;100874.09;4360876;32;20095;-89
2021/04/09 03:07:45;;;;;;;;;;;;;;;1.00;59.22;100872.97;4361244;32;20022;-89
2021/04/09 03:10:11;;;;;;;;;;;;;;;0.89;59.21;100877.81;4360863;32;20050;-88
2021/04/09 03:12:36;;;;;;;;;;;;;;;0.89;59.23;100871.00;4360836;32;20374;-89
2021/04/09 03:15:02;;;;;;;;;;;;;;;0.82;59.22;100879.38;4360870;32;19991;-88
2021/04/09 03:17:37;;;;;;;;;;;;;;;0.69;59.21;100873.88;4360911;32;20257;-89
2021/04/09 03:20:03;;;;;;;;;;;;;;;0.88;59.22;100869.28;4373588;32;19994;-88
2021/04/09 03:22:28;;;;;;;;;;;;;;;0.55;59.20;100878.66;4360950;32;19983;-91
2021/04/09 03:24:53;;;;;;;;;;;;;;;0.57;59.20;100874.44;4360972;32;20328;-88
2021/04/09 03:27:19;;;;;;;;;;;;;;;0.57;59.20;100875.31;4360975;32;20034;-88
2021/04/09 03:29:44;;;;;;;;;;;;;;;0.64;59.20;100881.47;4360808;32;20022;-87
2021/04/09 03:32:11;;;;;;;;;;;;;;;0.80;59.21;100877.59;4360722;32;20293;-89
2021/04/09 03:34:37;;;;;;;;;;;;;;;0.75;59.22;100879.19;4373085;32;20043;-88
2021/04/09 03:37:02;;;;;;;;;;;;;;;0.51;59.19;100874.31;4360616;32;20278;-88
2021/04/09 03:39:27;;;;;;;;;;;;;;;0.57;59.20;100880.44;4353783;32;19995;-88
2021/04/09 03:41:52;;;;;;;;;;;;;;;0.56;59.20;100878.72;4358375;32;20031;-88
2021/04/09 03:44:18;;;;;;;;;;;;;;;0.44;59.20;100883.50;4358545;32;20031;-88
2021/04/09 03:46:43;;;;;;;;;;;;;;;0.59;59.21;100877.91;4345997;33;20003;-90
2021/04/09 03:49:08;;;;;;;;;;;;;;;0.61;59.20;100874.56;4346232;33;20463;-89
2021/04/09 03:51:34;;;;;;;;;;;;;;;0.56;59.20;100876.16;4345845;33;26829;-89
2021/04/09 03:54:00;;;;;;;;;;;;;;;0.56;59.20;100872.72;4346353;33;20622;-89
2021/04/09 03:56:25;;;;;;;;;;;;;;;0.55;59.20;100876.09;4346449;33;19995;-88
2021/04/09 03:58:50;;;;;;;;;;;;;;;0.44;59.20;100875.81;4345659;33;19995;-90
2021/04/09 04:01:16;;;;;;;;;;;;;;;0.48;59.20;100869.97;4345935;33;20374;-88
2021/04/09 04:03:41;;;;;;;;;;;;;;;0.46;59.20;100878.41;4358282;32;20035;-88
2021/04/09 04:06:06;;;;;;;;;;;;;;;0.57;59.20;100877.00;4346258;33;20014;-90
2021/04/09 04:08:31;;;;;;;;;;;;;;;0.36;59.18;100886.69;4347866;33;19984;-91
2021/04/09 04:10:56;;;;;;;;;;;;;;;0.43;59.19;100883.44;4347825;33;20050;-91
2021/04/09 04:13:23;;;;;;;;;;;;;;;0.66;59.22;100882.38;4348298;33;19988;-87
2021/04/09 04:15:48;;;;;;;;;;;;;;;0.46;59.20;100886.09;4359278;32;19987;-87
2021/04/09 04:18:13;;;;;;;;;;;;;;;0.30;59.18;100879.72;4346314;33;20038;-87
2021/04/09 04:20:38;;;;;;;;;;;;;;;0.54;59.20;100882.06;4357788;32;20062;-87
2021/04/09 04:23:04;;;;;;;;;;;;;;;0.43;59.19;100888.56;4358426;32;19999;-87
2021/04/09 04:25:29;;;;;;;;;;;;;;;0.54;59.20;100889.75;4345237;33;20345;-86
2021/04/09 04:27:54;;;;;;;;;;;;;;;0.66;59.20;100886.62;4346553;33;20305;-87
2021/04/09 04:30:19;;;;;;;;;;;;;;;0.57;59.20;100889.81;4357897;32;19987;-87
2021/04/09 04:32:45;;;;;;;;;;;;;;;0.54;59.20;100893.19;4357672;32;20026;-90
2021/04/09 04:35:10;;;;;;;;;;;;;;;0.57;59.20;100885.56;4345300;33;19999;-88
2021/04/09 04:37:35;;;;;;;;;;;;;;;0.69;59.21;100882.44;4346861;33;19987;-87
2021/04/09 04:40:00;;;;;;;;;;;;;;;0.59;59.21;100888.16;4356851;32;20005;-88
2021/04/09 04:42:26;;;;;;;;;;;;;;;0.76;59.22;100897.16;4360017;32;20330;-87
2021/04/09 04:44:51;;;;;;;;;;;;;;;0.74;59.21;100893.69;4361479;32;20050;-87
2021/04/09 04:47:16;;;;;;;;;;;;;;;0.78;59.22;100895.50;4360181;32;19999;-87
2021/04/09 04:49:41;;;;;;;;;;;;;;;0.85;59.22;100899.97;4372346;32;20026;-87
2021/04/09 04:52:07;;;;;;;;;;;;;;;1.01;59.23;100897.78;4347886;32;19975;-88
2021/04/09 04:54:32;;;;;;;;;;;;;;;1.03;59.22;100911.50;4360204;32;20010;-89
2021/04/09 04:56:57;;;;;;;;;;;;;;;1.01;59.23;100910.59;4361663;32;19994;-89
2021/04/09 04:59:22;;;;;;;;;;;;;;;1.07;59.23;100910.75;4348313;32;20003;-88
2021/04/09 05:01:48;;;;;;;;;;;;;;;1.29;59.24;100913.00;4375768;32;19987;-88
2021/04/09 05:04:13;;;;;;;;;;;;;;;1.45;59.25;100912.56;4375620;32;19967;-88
2021/04/09 05:06:38;;;;;;;;;;;;;;;1.49;59.26;100911.78;4376016;32;20022;-87
2021/04/09 05:09:06;;;;;;;;;;;;;;;1.62;59.26;100902.66;4350002;32;20253;-87
2021/04/09 05:11:31;;;;;;;;;;;;;;;1.84;59.28;100914.28;4373614;32;20272;-88
2021/04/09 05:13:56;;;;;;;;;;;;;;;1.79;59.27;100910.75;4359730;32;20003;-88
2021/04/09 05:16:22;;;;;;;;;;;;;;;1.89;59.28;100910.09;4359967;32;20001;-85
2021/04/09 05:18:47;;;;;;;;;;;;;;;1.96;59.28;100908.56;4361246;32;20038;-89
2021/04/09 05:21:12;;;;;;;;;;;;;;;2.15;59.30;100908.97;4348505;32;19979;-89
2021/04/09 05:23:37;;;;;;;;;;;;;;;2.19;59.30;100917.59;4348532;32;20014;-89
2021/04/09 05:26:03;;;;;;;;;;;;;;;2.40;59.31;100909.47;4363028;32;19999;-89
2021/04/09 05:28:28;;;;;;;;;;;;;;;2.38;59.31;100913.72;4363137;32;19975;-89
2021/04/09 05:30:53;;;;;;;;;;;;;;;2.57;59.31;100909.75;4362648;32;20001;-90
2021/04/09 05:33:19;;;;;;;;;;;;;;;2.76;59.33;100911.84;4350609;32;20018;-88
2021/04/09 05:35:45;;;;;;;;;;;;;;;2.96;59.34;100917.34;4362214;32;20017;-88
2021/04/09 05:38:10;;;;;;;;;;;;;;;2.98;59.34;100920.81;4363347;32;20050;-89
2021/04/09 05:40:36;;;;;;;;;;;;;;;3.08;59.34;100917.56;4335300;33;28198;-89
2021/04/09 05:43:05;;;;;;;;;;;;;;;3.20;59.35;100917.75;4334948;33;20013;-89
2021/04/09 05:45:30;;;;;;;;;;;;;;;3.34;59.36;100923.16;4347419;33;20010;-88
2021/04/09 05:48:01;;;;;;;;;;;;;;;3.44;59.36;100924.13;4348471;32;19994;-89
2021/04/09 05:50:26;;;;;;;;;;;;;;;3.88;59.39;100919.66;4347258;33;19984;-89
2021/04/09 05:52:52;;;;;;;;;;;;;;;4.04;59.40;100915.59;4347996;32;25014;-89
2021/04/09 05:55:17;;;;;;;;;;;;;;;4.23;59.42;100915.81;4346977;33;20006;-88
2021/04/09 05:57:42;;;;;;;;;;;;;;;4.27;59.42;100921.87;4334398;33;19987;-88
2021/04/09 06:00:09;;;;;;;;;;;;;;;4.41;59.42;100917.75;4333944;33;23650;-88
2021/04/09 06:02:35;;;;;;;;;;;;;;;4.51;59.43;100911.87;4334380;33;20014;-88
2021/04/09 06:05:00;;;;;;;;;;;;;;;4.60;59.43;100909.38;4334349;33;20078;-89
2021/04/09 06:07:26;;;;;;;;;;;;;;;4.76;59.44;100909.53;4346600;33;20026;-88
2021/04/09 06:09:51;;;;;;;;;;;;;;;4.81;59.45;100906.16;4347808;33;19983;-89
2021/04/09 06:12:18;;;;;;;;;;;;;;;4.93;59.45;100913.12;4347975;32;20002;-88
2021/04/09 06:14:44;;;;;;;;;;;;;;;4.92;59.45;100913.97;4334841;33;20055;-90
2021/04/09 06:17:09;;;;;;;;;;;;;;;5.14;59.46;100905.59;4334696;33;20380;-89
2021/04/09 06:19:34;;;;;;;;;;;;;;;4.94;59.46;100910.56;4334355;33;20291;-90
2021/04/09 06:21:59;;;;;;;;;;;;;;;5.30;59.47;100911.75;4333521;33;20553;-90
2021/04/09 06:24:25;;;;;;;;;;;;;;;5.45;59.48;100911.03;4334953;33;20007;-88
2021/04/09 06:26:50;;;;;;;;;;;;;;;5.54;59.49;100911.94;4346519;33;20344;-89
2021/04/09 06:29:15;;;;;;;;;;;;;;;5.72;59.50;100907.75;4326084;33;19999;-88
2021/04/09 06:31:41;;;;;;;;;;;;;;;5.77;59.50;100903.47;4332495;33;20001;-88
2021/04/09 06:34:06;;;;;;;;;;;;;;;5.90;59.50;100901.84;4345932;33;20243;-87
2021/04/09 06:36:31;;;;;;;;;;;;;;;6.04;59.51;100897.63;4346094;33;20003;-88
2021/04/09 06:38:56;;;;;;;;;;;;;;;6.11;59.51;100899.38;4334510;33;19983;-88
2021/04/09 06:41:22;;;;;;;;;;;;;;;6.28;59.52;100902.03;4358308;32;24696;-88
2021/04/09 06:43:47;;;;;;;;;;;;;;;6.42;59.54;100893.47;4357826;32;29632;-88
2021/04/09 06:46:12;;;;;;;;;;;;;;;6.61;59.55;100898.66;4345080;33;19979;-88
2021/04/09 06:48:38;;;;;;;;;;;;;;;6.58;59.55;100898.66;4358875;32;20050;-88
2021/04/09 06:51:03;;;;;;;;;;;;;;;6.94;59.56;100897.87;4359359;32;20027;-88
2021/04/09 06:53:28;;;;;;;;;;;;;;;7.03;59.57;100901.34;4346595;33;20054;-88
2021/04/09 06:55:53;;;;;;;;;;;;;;;7.09;59.56;100900.47;4345753;33;19995;-88
2021/04/09 06:58:19;;;;;;;;;;;;;;;7.44;59.59;100899.62;4358015;32;20294;-88
2021/04/09 07:00:46;;;;;;;;;;;;;;;7.65;59.60;100902.19;4358175;32;20043;-88
2021/04/09 07:03:11;;;;;;;;;;;;;;;7.98;59.62;100893.47;4358429;32;20050;-88
2021/04/09 07:05:37;;;;;;;;;;;;;;;8.07;59.62;100890.00;4346108;33;20345;-88
2021/04/09 07:08:02;;;;;;;;;;;;;;;8.27;59.64;100895.94;4358528;32;20274;-88
2021/04/09 07:10:28;;;;;;;;;;;;;;;8.41;59.65;100890.72;4358532;32;20254;-88
2021/04/09 07:13:03;;;;;;;;;;;;;;;8.70;59.66;100891.41;4357502;32;29065;-87
2021/04/09 07:15:28;;;;;;;;;;;;;;;8.65;59.65;100895.78;4358206;32;19984;-88
2021/04/09 07:17:54;;;;;;;;;;;;;;;8.75;59.66;100889.66;4358332;32;19995;-88
2021/04/09 07:20:23;;;;;;;;;;;;;;;8.73;59.66;100893.12;4357779;32;25863;-88
2021/04/09 07:22:49;;;;;;;;;;;;;;;8.89;59.66;100892.16;4345863;33;20007;-88
2021/04/09 07:25:15;;;;;;;;;;;;;;;9.19;59.69;100886.75;4358007;32;19997;-88
2021/04/09 07:27:40;;;;;;;;;;;;;;;9.21;59.69;100894.50;4358385;32;19971;-88
2021/04/09 07:30:06;;;;;;;;;;;;;;;9.52;59.70;100885.59;4345609;33;20030;-88
2021/04/09 07:32:32;;;;;;;;;;;;;;;9.51;59.70;100885.63;4357935;32;20282;-88
2021/04/09 07:35:02;;;;;;;;;;;;;;;9.55;59.71;100892.50;4358252;32;20245;-88
2021/04/09 07:37:27;;;;;;;;;;;;;;;9.64;59.71;100883.75;4347359;33;20006;-88
2021/04/09 07:39:57;;;;;;;;;;;;;;;9.48;59.70;100885.66;4355146;32;20011;-88
2021/04/09 07:42:42;;;;;;;;;;;;;;;9.81;59.73;100884.44;4361896;32;19995;-88
2021/04/09 07:45:09;;;;;;;;;;;;;;;9.90;59.73;100876.50;4371368;32;19987;-88
2021/04/09 07:47:35;;;;;;;;;;;;;;;9.78;59.72;100879.28;4374369;32;20014;-88
2021/04/09 07:50:01;;;;;;;;;;;;;;;9.89;59.72;100872.19;4364709;32;19995;-89
2021/04/09 07:52:26;;;;;;;;;;;;;;;10.01;59.73;100869.47;4363001;32;19986;-89
2021/04/09 07:54:52;;;;;;;;;;;;;;;10.04;59.74;100873.78;4348050;32;19995;-92
2021/04/09 07:57:27;;;;;;;;;;;;;;;10.37;59.76;100875.97;4360278;32;20021;-91
2021/04/09 07:59:52;;;;;;;;;;;;;;;10.47;59.76;100862.84;4361049;32;20352;-90
2021/04/09 08:02:17;;;;;;;;;;;;;;;10.54;59.76;100869.69;4348503;32;20006;-90
2021/04/09 08:04:42;;;;;;;;;;;;;;;10.67;59.77;100869.50;4360239;32;22424;-89
2021/04/09 08:07:08;;;;;;;;;;;;;;;10.63;59.77;100873.00;4373080;32;20249;-90
2021/04/09 08:09:47;;;;;;;;;;;;;;;10.70;59.78;100869.44;4360736;32;19987;-91
2021/04/09 08:12:44;;;;;;;;;;;;;;;10.66;59.77;100872.13;4360934;32;20015;-90
2021/04/09 08:15:13;;;;;;;;;;;;;;;10.80;59.78;100867.56;4352796;32;19982;-89
2021/04/09 08:17:39;;;;;;;;;;;;;;;10.89;59.78;100871.78;4361226;32;19998;-89
2021/04/09 08:20:08;;;;;;;;;;;;;;;10.90;59.79;100873.50;4360682;32;19987;-90
2021/04/09 08:22:34;;;;;;;;;;;;;;;10.96;59.79;100873.41;4373625;32;19991;-88
2021/04/09 08:25:01;;;;;;;;;;;;;;;11.02;59.79;100862.88;4374485;32;20042;-89
2021/04/09 08:27:26;;;;;;;;;;;;;;;11.18;59.80;100868.72;4362221;32;20313;-89
2021/04/09 08:29:52;;;;;;;;;;;;;;;11.00;59.79;100860.31;4372540;32;20023;-89
2021/04/09 08:32:17;;;;;;;;;;;;;;;11.40;59.81;100853.56;4360230;32;20376;-89
2021/04/09 08:34:42;;;;;;;;;;;;;;;11.49;59.81;100856.00;4360109;32;20033;-88
2021/04/09 08:37:07;;;;;;;;;;;;;;;11.59;59.83;100853.22;4373146;32;19975;-89
2021/04/09 08:39:33;;;;;;;;;;;;;;;11.59;59.82;100860.16;4365536;32;20040;-89
2021/04/09 08:41:58;;;;;;;;;;;;;;;11.68;59.83;100855.62;4357973;32;20005;-89
2021/04/09 08:44:23;;;;;;;;;;;;;;;11.72;59.83;100859.03;4357752;32;20047;-88
2021/04/09 08:46:49;;;;;;;;;;;;;;;12.00;59.85;100851.56;4345353;33;20042;-89
2021/04/09 08:49:14;;;;;;;;;;;;;;;11.98;59.84;100848.13;4345367;33;20011;-88
2021/04/09 08:51:40;;;;;;;;;;;;;;;12.11;59.85;100849.59;4357596;32;20029;-88
2021/04/09 08:54:14;;;;;;;;;;;;;;;12.24;59.86;100840.63;4357990;32;19983;-88
2021/04/09 08:56:40;;;;;;;;;;;;;;;12.47;59.87;100845.34;4346874;33;19994;-89
2021/04/09 08:59:05;;;;;;;;;;;;;;;12.63;59.88;100838.03;4359410;32;20258;-88
2021/04/09 09:01:30;;;;;;;;;;;;;;;12.50;59.88;100842.66;4346735;33;20065;-89
2021/04/09 09:04:15;;;;;;;;;;;;;;;12.61;59.88;100842.41;4359505;32;20043;-89
2021/04/09 09:06:41;;;;;;;;;;;;;;;12.76;59.89;100833.34;4345421;32;19991;-89
2021/04/09 09:09:07;;;;;;;;;;;;;;;12.85;59.89;100827.94;4359531;32;20035;-88
2021/04/09 09:11:51;;;;;;;;;;;;;;;12.65;59.88;100832.75;4359307;32;20348;-88
2021/04/09 09:14:35;;;;;;;;;;;;;;;12.92;59.89;100816.41;4348143;33;19970;-88
2021/04/09 09:17:21;;;;;;;;;;;;;;;13.08;59.91;100819.53;4348245;33;19987;-88
2021/04/09 09:19:50;;;;;;;;;;;;;;;12.83;59.89;100824.50;4346366;32;19995;-89
2021/04/09 09:22:19;;;;;;;;;;;;;;;12.69;59.89;100816.13;4348218;33;20042;-88
2021/04/09 09:25:00;;;;;;;;;;;;;;;13.15;59.91;100811.47;4359526;32;20105;-89
2021/04/09 09:27:44;;;;;;;;;;;;;;;13.21;59.91;100808.72;4348881;33;19975;-88
2021/04/09 09:30:32;;;;;;;;;;;;;;;13.18;59.91;100800.09;4346590;33;20010;-88
2021/04/09 09:33:17;;;;;;;;;;;;;;;13.23;59.91;100798.22;4348503;33;20033;-88
2021/04/09 09:35:58;;;;;;;;;;;;;;;13.53;59.92;100796.56;4349336;33;20002;-88
2021/04/09 09:38:42;;;;;;;;;;;;;;;13.60;59.93;100794.62;4360312;32;19987;-88
2021/04/09 09:41:07;;;;;;;;;;;;;;;13.60;59.93;100798.09;4347992;32;19983;-89
2021/04/09 09:43:33;;;;;;;;;;;;;;;13.72;59.94;100784.69;4370301;32;20608;-88
2021/04/09 09:45:58;;;;;;;;;;;;;;;14.01;59.95;100783.00;4373892;32;23880;-88
2021/04/09 09:48:23;;;;;;;;;;;;;;;14.18;59.97;100782.47;4374405;32;20006;-89
2021/04/09 09:50:48;;;;;;;;;;;;;;;14.21;59.97;100780.63;4361732;32;28972;-89
2021/04/09 09:53:14;;;;;;;;;;;;;;;14.45;59.98;100767.72;4363140;32;20029;-89
2021/04/09 09:55:44;;;;;;;;;;;;;;;14.55;59.98;100753.41;4361598;32;20465;-88
2021/04/09 09:58:13;;;;;;;;;;;;;;;14.63;59.98;100757.47;4373928;32;20679;-88
2021/04/09 10:00:42;;;;;;;;;;;;;;;14.75;60.00;100756.22;4374262;32;19994;-89
2021/04/09 10:03:29;;;;;;;;;;;;;;;14.91;60.00;100744.34;4361724;32;19999;-90
2021/04/09 10:05:55;;;;;;;;;;;;;;;15.02;60.00;100736.09;4374009;32;20006;-89
2021/04/09 10:08:21;;;;;;;;;;;;;;;15.14;60.01;100735.69;4374300;32;19994;-89
2021/04/09 10:10:48;;;;;;;;;;;;;;;15.23;60.02;100732.72;4373692;32;20363;-88
2021/04/09 10:13:23;;;;;;;;;;;;;;;15.26;60.03;100722.13;4374047;32;19999;-88
2021/04/09 10:15:49;;;;;;;;;;;;;;;15.20;60.02;100718.87;4373406;32;19971;-90
2021/04/09 10:18:15;;;;;;;;;;;;;;;15.55;60.05;100712.31;4360187;32;19991;-89
2021/04/09 10:20:40;;;;;;;;;;;;;;;15.48;60.04;100700.34;4372559;32;20042;-87
2021/04/09 10:23:06;;;;;;;;;;;;;;;15.52;60.03;100691.44;4362068;32;20372;-88
2021/04/09 10:25:34;;;;;;;;;;;;;;;15.69;60.04;100698.72;4372780;32;20031;-87
2021/04/09 10:28:00;;;;;;;;;;;;;;;15.74;60.05;100689.75;4362032;32;20021;-87
2021/04/09 10:30:26;;;;;;;;;;;;;;;15.95;60.07;100694.19;4377238;32;20019;-86
2021/04/09 10:32:51;;;;;;;;;;;;;;;16.12;60.07;100693.53;4372995;32;19967;-87
2021/04/09 10:35:23;;;;;;;;;;;;;;;16.24;60.08;100674.63;4384866;32;19979;-86
2021/04/09 10:37:48;;;;;;;;;;;;;;;16.38;60.08;100676.72;4373420;32;20672;-87
2021/04/09 10:40:13;;;;;;;;;;;;;;;16.44;60.08;100665.94;4351382;32;20005;-87
2021/04/09 10:42:39;;;;;;;;;;;;;;;16.39;60.08;100667.06;4345916;33;20015;-88
2021/04/09 10:45:19;;;;;;;;;;;;;;;16.57;60.10;100653.16;4345693;33;19979;-87
2021/04/09 10:47:45;;;;;;;;;;;;;;;16.65;60.10;100655.44;4357783;32;20035;-88
2021/04/09 10:50:10;;;;;;;;;;;;;;;16.60;60.09;100653.00;4357769;32;20043;-88
2021/04/09 10:52:35;;;;;;;;;;;;;;;16.49;60.09;100656.09;4345521;33;20011;-88
2021/04/09 10:55:01;;;;;;;;;;;;;;;16.55;60.10;100652.34;4357879;32;20022;-88
2021/04/09 10:57:26;;;;;;;;;;;;;;;16.37;60.08;100650.50;4347293;33;19999;-88
2021/04/09 10:59:51;;;;;;;;;;;;;;;16.41;60.09;100639.78;4346457;33;19991;-89
2021/04/09 11:02:20;;;;;;;;;;;;;;;16.58;60.10;100642.56;4357583;32;20003;-89
2021/04/09 11:04:49;;;;;;;;;;;;;;;16.75;60.11;100630.50;4345670;33;20325;-87
2021/04/09 11:07:14;;;;;;;;;;;;;;;16.70;60.11;100637.72;4358044;32;19979;-88
2021/04/09 11:09:49;;;;;;;;;;;;;;;16.64;60.10;100625.69;4345523;33;20128;-88
2021/04/09 11:12:15;;;;;;;;;;;;;;;16.67;60.10;100620.31;4345221;33;20062;-89
2021/04/09 11:14:40;;;;;;;;;;;;;;;16.81;60.11;100617.94;4345380;33;19991;-89
2021/04/09 11:17:05;;;;;;;;;;;;;;;16.93;60.12;100618.31;4345192;33;20346;-88
2021/04/09 11:19:35;;;;;;;;;;;;;;;17.25;60.14;100603.69;4346920;33;20033;-88
2021/04/09 11:22:02;;;;;;;;;;;;;;;17.43;60.15;100605.50;4356745;32;20003;-89
2021/04/09 11:24:30;;;;;;;;;;;;;;;17.52;60.15;100598.97;4357531;32;20310;-88
2021/04/09 11:26:55;;;;;;;;;;;;;;;17.13;60.13;100611.25;4358222;32;20357;-87
2021/04/09 11:29:28;;;;;;;;;;;;;;;17.32;60.14;100610.41;4357296;32;19991;-88
2021/04/09 11:32:26;;;;;;;;;;;;;;;17.24;60.14;100602.84;4357821;32;19995;-88
2021/04/09 11:34:51;;;;;;;;;;;;;;;17.38;60.15;100592.56;4329615;33;20035;-88
2021/04/09 11:37:17;;;;;;;;;;;;;;;17.47;60.15;100586.84;4346966;33;19999;-89
2021/04/09 11:41:39;;;;;;;;;;;;;;;17.64;60.16;100582.56;4498363;31;891416;-88
2021/04/09 11:44:24;;;;;;;;;;;;;;;17.51;60.15;100574.41;4500230;31;20011;-89
2021/04/09 11:46:49;;;;;;;;;;;;;;;17.62;60.16;100585.28;4528037;31;20355;-88
2021/04/09 11:49:15;;;;;;;;;;;;;;;17.53;60.15;100574.34;4513238;31;20027;-89
2021/04/09 11:51:40;;;;;;;;;;;;;;;17.54;60.16;100565.53;4513801;31;20390;-89
2021/04/09 11:54:06;;;;;;;;;;;;;;;17.62;60.16;100571.25;4500053;31;19999;-89
2021/04/09 11:56:38;;;;;;;;;;;;;;;17.49;60.16;100577.09;4527905;31;20213;-88
2021/04/09 11:59:13;;;;;;;;;;;;;;;17.52;60.15;100562.09;4513609;31;20075;-89
2021/04/09 12:01:39;;;;;;;;;;;;;;;17.65;60.16;100563.22;4489313;31;19996;-90
2021/04/09 12:04:04;;;;;;;;;;;;;;;17.71;60.16;100555.03;4497547;31;20007;-90
2021/04/09 12:06:34;;;;;;;;;;;;;;;17.81;60.17;100548.41;4484509;31;19996;-91
2021/04/09 12:08:59;;;;;;;;;;;;;;;17.92;60.17;100550.50;4498398;31;19996;-91
2021/04/09 12:11:25;;;;;;;;;;;;;;;17.93;60.18;100542.53;4484972;31;19975;-90
2021/04/09 12:13:51;;;;;;;;;;;;;;;17.97;60.18;100524.78;4511853;31;20053;-90
2021/04/09 12:16:16;;;;;;;;;;;;;;;17.93;60.19;100523.22;4484323;31;19996;-91
2021/04/09 12:18:41;;;;;;;;;;;;;;;18.01;60.18;100526.34;4497520;31;20019;-92
2021/04/09 12:21:06;;;;;;;;;;;;;;;17.88;60.17;100531.38;4474976;32;20004;-91
2021/04/09 12:23:32;;;;;;;;;;;;;;;17.90;60.17;100512.84;4469601;32;20018;-89
2021/04/09 12:25:57;;;;;;;;;;;;;;;17.98;60.18;100511.56;4482601;32;20044;-90
2021/04/09 12:28:22;;;;;;;;;;;;;;;17.91;60.17;100509.28;4470033;31;20367;-91
2021/04/09 12:30:48;;;;;;;;;;;;;;;18.04;60.18;100508.59;4470749;32;20004;-90
2021/04/09 12:33:13;;;;;;;;;;;;;;;18.06;60.19;100488.31;4469128;31;19999;-89
2021/04/09 12:35:38;;;;;;;;;;;;;;;17.95;60.18;100490.63;4495899;32;20014;-89
2021/04/09 12:38:06;;;;;;;;;;;;;;;18.03;60.18;100487.63;4469403;32;19988;-90
2021/04/09 12:40:32;;;;;;;;;;;;;;;18.06;60.18;100475.13;4479931;32;19988;-88
2021/04/09 12:42:58;;;;;;;;;;;;;;;17.86;60.18;100483.19;4481759;32;20276;-88
2021/04/09 12:45:23;;;;;;;;;;;;;;;17.95;60.18;100471.31;4468624;32;19981;-90